Time;durP1;ratioP1;P1;durP2;ratioP2;P2;SDS_P1;SDS_P2;PMS_P1;PMS_P2;Temp;Humidity;BMP_temperature;BMP_pressure;BME280_temperature;BME280_humidity;BME280_pressure;Samples;Min_cycle;Max_cycle;Signal;HPM_P1;HPM_P2
2021/09/11 00:00:05;;;;;;;6.00;4.65;;;;;;;21.05;62.98;96851.97;4993472;28;20180;-62
2021/09/11 00:02:31;;;;;;;5.22;4.72;;;;;;;20.89;63.52;96855.97;5003242;28;20183;-62
2021/09/11 00:04:56;;;;;;;5.10;4.60;;;;;;;20.95;63.30;96860.16;5009202;28;20520;-62
2021/09/11 00:07:22;;;;;;;8.63;4.50;;;;;;;20.94;63.46;96853.22;4996796;28;20262;-62
2021/09/11 00:09:47;;;;;;;4.60;4.20;;;;;;;20.90;63.79;96857.53;5008814;28;20188;-61
2021/09/11 00:12:13;;;;;;;4.65;4.20;;;;;;;20.90;63.70;96841.53;5001494;28;20563;-62
2021/09/11 00:14:38;;;;;;;4.28;3.92;;;;;;;20.68;64.47;96844.00;5002067;28;20196;-62
2021/09/11 00:17:04;;;;;;;4.85;4.38;;;;;;;20.64;64.54;96849.16;5008392;28;20191;-62
2021/09/11 00:19:29;;;;;;;4.68;4.20;;;;;;;20.51;65.16;96839.19;4996332;28;20198;-63
2021/09/11 00:21:55;;;;;;;5.07;4.10;;;;;;;20.53;65.21;96839.72;5009067;28;20201;-62
2021/09/11 00:24:20;;;;;;;5.97;4.60;;;;;;;20.52;65.20;96845.31;5004077;28;20643;-62
2021/09/11 00:26:45;;;;;;;4.50;4.10;;;;;;;20.61;65.24;96839.09;4994220;28;20196;-62
2021/09/11 00:29:11;;;;;;;5.30;4.80;;;;;;;20.60;65.30;96832.16;4976734;28;20187;-62
2021/09/11 00:31:36;;;;;;;5.00;4.50;;;;;;;20.57;65.45;96837.25;5003836;28;20199;-62
2021/09/11 00:34:02;;;;;;;5.03;4.53;;;;;;;20.57;65.55;96832.72;5007021;28;20219;-62
2021/09/11 00:36:28;;;;;;;5.30;4.80;;;;;;;20.52;65.68;96838.13;4976312;28;20188;-62
2021/09/11 00:38:53;;;;;;;5.38;4.88;;;;;;;20.56;65.63;96836.47;5005781;28;20233;-62
2021/09/11 00:41:19;;;;;;;4.85;4.32;;;;;;;20.54;65.93;96835.97;5002600;28;20203;-63
2021/09/11 00:43:48;;;;;;;5.10;4.60;;;;;;;20.52;65.79;96838.13;4995046;28;20179;-62
2021/09/11 00:46:15;;;;;;;5.07;4.20;;;;;;;20.44;66.29;96836.13;5005816;28;20180;-63
2021/09/11 00:48:40;;;;;;;5.30;4.80;;;;;;;20.53;65.89;96852.25;4993489;28;20192;-62
2021/09/11 00:51:06;;;;;;;4.93;4.40;;;;;;;20.60;65.75;96837.50;5000539;28;20261;-62
2021/09/11 00:53:32;;;;;;;6.80;4.63;;;;;;;20.46;66.25;96846.47;4994385;28;20188;-62
2021/09/11 00:55:58;;;;;;;5.13;4.40;;;;;;;20.57;66.09;96838.06;5007896;28;20183;-62
2021/09/11 00:58:25;;;;;;;5.28;4.78;;;;;;;20.63;65.82;96847.56;4999958;28;20270;-62
2021/09/11 01:00:50;;;;;;;5.18;4.40;;;;;;;20.69;65.81;96846.41;5006790;28;20637;-63
2021/09/11 01:03:15;;;;;;;5.82;5.22;;;;;;;20.65;65.76;96848.06;5015495;28;20223;-63
2021/09/11 01:05:44;;;;;;;7.35;5.20;;;;;;;20.52;66.50;96854.09;4999423;28;20184;-63
2021/09/11 01:08:09;;;;;;;5.40;4.90;;;;;;;20.51;66.77;96857.06;5011024;28;20271;-62
2021/09/11 01:10:38;;;;;;;5.50;4.90;;;;;;;20.52;66.73;96851.44;5000873;28;20290;-62
2021/09/11 01:13:03;;;;;;;5.20;4.70;;;;;;;20.44;66.62;96849.44;5004337;28;20198;-62
2021/09/11 01:15:34;;;;;;;5.95;4.55;;;;;;;20.57;66.51;96859.34;4996112;28;20188;-66
2021/09/11 01:18:00;;;;;;;6.93;4.68;;;;;;;20.55;66.95;96850.88;5000110;28;20191;-62
2021/09/11 01:20:26;;;;;;;5.47;4.85;;;;;;;20.53;67.08;96842.38;5009722;28;20196;-62
2021/09/11 01:22:51;;;;;;;5.07;4.57;;;;;;;20.40;67.61;96845.75;5005777;28;20272;-62
2021/09/11 01:25:17;;;;;;;6.50;5.20;;;;;;;20.34;68.12;96845.03;4997115;28;20222;-63
2021/09/11 01:27:42;;;;;;;5.40;4.90;;;;;;;20.43;67.87;96847.06;5010075;28;20245;-62
2021/09/11 01:30:12;;;;;;;5.85;5.32;;;;;;;20.30;68.39;96848.53;5004635;28;20625;-62
2021/09/11 01:32:38;;;;;;;4.97;4.57;;;;;;;20.33;68.34;96848.78;5004867;28;20250;-62
2021/09/11 01:35:05;;;;;;;5.28;4.55;;;;;;;20.26;69.17;96850.97;5014546;28;20195;-62
2021/09/11 01:37:30;;;;;;;5.80;5.15;;;;;;;20.28;69.31;96845.38;5004659;28;20279;-62
2021/09/11 01:39:56;;;;;;;5.18;4.68;;;;;;;20.22;69.63;96843.84;5005305;28;20224;-62
2021/09/11 01:42:24;;;;;;;8.25;4.80;;;;;;;20.23;69.60;96848.88;5009576;28;20191;-62
2021/09/11 01:44:52;;;;;;;6.38;4.95;;;;;;;20.09;70.33;96845.34;4998987;28;20195;-62
2021/09/11 01:47:17;;;;;;;5.35;4.75;;;;;;;20.04;70.55;96847.28;5013556;28;20274;-62
2021/09/11 01:49:43;;;;;;;5.10;4.60;;;;;;;20.06;70.61;96853.13;5007190;28;20570;-62
2021/09/11 01:52:10;;;;;;;5.25;4.75;;;;;;;20.04;70.83;96852.59;5007740;28;20207;-62
2021/09/11 01:54:40;;;;;;;6.55;4.50;;;;;;;20.09;70.79;96860.53;4999498;28;20241;-62
2021/09/11 01:57:06;;;;;;;6.28;4.88;;;;;;;20.19;70.43;96866.50;4999803;28;20329;-62
2021/09/11 01:59:32;;;;;;;6.03;5.20;;;;;;;20.21;70.43;96864.34;5009138;28;20199;-62
2021/09/11 02:01:58;;;;;;;5.68;5.18;;;;;;;20.03;71.10;96866.97;5006026;28;20183;-62
2021/09/11 02:04:23;;;;;;;7.07;4.90;;;;;;;20.00;71.29;96868.34;5000988;28;20210;-62
2021/09/11 02:06:49;;;;;;;5.88;5.03;;;;;;;20.20;70.91;96869.97;5011412;28;20198;-62
2021/09/11 02:09:15;;;;;;;6.25;5.47;;;;;;;20.21;70.76;96874.22;4997533;28;20183;-62
2021/09/11 02:11:40;;;;;;;5.63;5.03;;;;;;;20.05;71.42;96868.28;4994734;28;20215;-62
2021/09/11 02:14:05;;;;;;;5.55;5.05;;;;;;;20.08;71.58;96873.03;5007278;28;20215;-62
2021/09/11 02:16:31;;;;;;;7.00;5.25;;;;;;;20.15;71.34;96875.34;5000490;28;20191;-62
2021/09/11 02:18:56;;;;;;;5.25;4.80;;;;;;;20.01;72.01;96869.13;4997257;28;20180;-62
2021/09/11 02:21:22;;;;;;;5.65;5.13;;;;;;;20.01;71.98;96867.25;5010363;28;20671;-62
2021/09/11 02:23:48;;;;;;;6.00;5.05;;;;;;;19.93;72.33;96873.22;5000933;28;20280;-62
2021/09/11 02:26:13;;;;;;;5.97;5.05;;;;;;;20.07;71.96;96867.97;5006913;28;20184;-62
2021/09/11 02:28:38;;;;;;;6.90;5.13;;;;;;;20.09;71.71;96863.19;5001378;28;20187;-62
2021/09/11 02:31:04;;;;;;;6.22;5.05;;;;;;;20.04;72.16;96849.94;5006287;28;20195;-63
2021/09/11 02:33:29;;;;;;;6.60;4.93;;;;;;;20.14;71.77;96861.25;5013495;28;20184;-62
2021/09/11 02:35:55;;;;;;;5.28;4.78;;;;;;;19.89;72.67;96859.66;5006519;28;20639;-62
2021/09/11 02:38:20;;;;;;;5.88;5.18;;;;;;;19.98;72.42;96857.19;5006754;28;20214;-62
2021/09/11 02:40:45;;;;;;;5.30;4.80;;;;;;;19.93;72.43;96860.72;5000835;28;20203;-62
2021/09/11 02:43:11;;;;;;;4.82;4.32;;;;;;;20.08;72.15;96858.94;4995848;28;20198;-62
2021/09/11 02:45:36;;;;;;;5.18;4.68;;;;;;;19.95;72.54;96862.31;5010700;28;20576;-62
2021/09/11 02:48:02;;;;;;;5.32;4.55;;;;;;;20.03;72.31;96861.66;5002719;28;20261;-63
2021/09/11 02:50:27;;;;;;;5.28;4.78;;;;;;;20.06;72.13;96863.75;5002841;28;20235;-63
2021/09/11 02:52:52;;;;;;;5.22;4.82;;;;;;;20.04;72.47;96865.91;4996312;28;20211;-62
2021/09/11 02:55:18;;;;;;;6.10;4.75;;;;;;;20.06;71.90;96864.53;4997897;28;20607;-62
2021/09/11 02:57:43;;;;;;;6.13;4.80;;;;;;;19.97;72.83;96866.25;5009784;28;20184;-62
2021/09/11 03:00:09;;;;;;;4.85;4.45;;;;;;;20.02;72.52;96863.53;5001902;28;20190;-62
2021/09/11 03:02:35;;;;;;;5.55;4.90;;;;;;;20.07;72.42;96870.66;5001619;28;20180;-62
2021/09/11 03:05:00;;;;;;;5.07;4.68;;;;;;;20.00;72.83;96867.56;4996700;28;20196;-63
2021/09/11 03:07:25;;;;;;;5.03;4.63;;;;;;;20.00;72.77;96867.56;5004753;28;20341;-62
2021/09/11 03:09:51;;;;;;;5.32;4.82;;;;;;;19.97;72.85;96862.78;4996625;28;20581;-62
2021/09/11 03:12:16;;;;;;;5.50;4.55;;;;;;;19.98;72.83;96859.84;5000978;28;20214;-62
2021/09/11 03:14:41;;;;;;;4.28;3.97;;;;;;;20.09;72.45;96858.66;5011481;28;20187;-62
2021/09/11 03:17:07;;;;;;;4.93;4.53;;;;;;;20.03;72.56;96859.78;4998090;28;20545;-63
2021/09/11 03:19:32;;;;;;;4.57;4.18;;;;;;;19.97;72.96;96866.25;5012921;28;20184;-62
2021/09/11 03:21:58;;;;;;;5.18;4.68;;;;;;;19.96;72.96;96848.69;5005640;28;20200;-63
2021/09/11 03:24:23;;;;;;;5.07;4.57;;;;;;;19.99;72.91;96857.97;5005058;28;20517;-62
2021/09/11 03:26:49;;;;;;;4.40;4.00;;;;;;;20.11;72.23;96850.38;5000633;28;20192;-62
2021/09/11 03:29:14;;;;;;;4.75;4.32;;;;;;;20.15;72.42;96862.03;4996901;28;20188;-63
2021/09/11 03:31:40;;;;;;;5.18;4.65;;;;;;;20.08;72.19;96858.94;5009959;28;20208;-63
2021/09/11 03:34:05;;;;;;;4.97;4.47;;;;;;;20.18;72.13;96864.91;5001412;28;20241;-62
2021/09/11 03:36:31;;;;;;;5.38;4.88;;;;;;;20.16;72.06;96863.63;5009225;28;20183;-61
2021/09/11 03:38:56;;;;;;;6.32;4.70;;;;;;;20.00;72.68;96859.56;5002043;28;20311;-62
2021/09/11 03:41:21;;;;;;;4.95;4.43;;;;;;;20.14;72.38;96858.59;5007597;28;20194;-68
2021/09/11 03:43:47;;;;;;;4.28;3.97;;;;;;;20.04;72.58;96857.91;5001809;28;20187;-62
2021/09/11 03:46:12;;;;;;;4.25;3.90;;;;;;;20.05;72.68;96865.63;4998547;28;20183;-61
2021/09/11 03:48:38;;;;;;;4.78;4.30;;;;;;;19.98;72.78;96864.38;5006085;28;20192;-62
2021/09/11 03:51:03;;;;;;;4.63;4.22;;;;;;;19.99;72.60;96869.41;5000918;28;20206;-62
2021/09/11 03:53:28;;;;;;;4.57;4.18;;;;;;;19.91;73.19;96862.06;5006329;28;20187;-62
2021/09/11 03:55:54;;;;;;;4.97;4.47;;;;;;;19.92;73.18;96867.09;4999248;28;20188;-62
2021/09/11 03:58:19;;;;;;;4.40;4.10;;;;;;;20.02;72.64;96862.72;5009821;28;20237;-62
2021/09/11 04:00:45;;;;;;;4.72;4.28;;;;;;;19.99;72.67;96869.41;4995167;28;20271;-62
2021/09/11 04:03:10;;;;;;;4.57;4.00;;;;;;;19.77;73.79;96867.28;4993612;28;20184;-69
2021/09/11 04:05:36;;;;;;;4.25;3.85;;;;;;;19.74;73.87;96867.84;5004082;28;20187;-62
2021/09/11 04:08:01;;;;;;;4.22;3.92;;;;;;;19.85;73.39;96861.31;4996453;28;20192;-62
2021/09/11 04:10:27;;;;;;;4.40;4.00;;;;;;;19.77;73.73;96859.31;5007214;28;20243;-62
2021/09/11 04:12:52;;;;;;;4.68;4.25;;;;;;;19.88;73.36;96870.63;4998643;28;20562;-62
2021/09/11 04:15:17;;;;;;;4.72;4.25;;;;;;;19.93;73.09;96863.38;4998485;28;20228;-62
2021/09/11 04:17:43;;;;;;;3.90;3.50;;;;;;;19.99;72.88;96869.41;5009428;28;20183;-64
2021/09/11 04:20:09;;;;;;;5.28;3.90;;;;;;;19.92;73.13;96871.63;5008738;28;20184;-62
2021/09/11 04:22:34;;;;;;;4.03;3.72;;;;;;;20.07;72.43;96865.31;4994134;28;20526;-62
2021/09/11 04:25:00;;;;;;;3.53;3.22;;;;;;;20.11;72.32;96867.16;5003616;28;20266;-62
2021/09/11 04:27:25;;;;;;;4.15;3.83;;;;;;;20.17;72.21;96865.22;4999923;28;20188;-62
2021/09/11 04:29:50;;;;;;;5.00;4.05;;;;;;;19.98;72.87;96877.69;5009703;28;20305;-62
2021/09/11 04:32:16;;;;;;;4.28;3.83;;;;;;;19.91;73.52;96870.03;4996450;28;20226;-64
2021/09/11 04:34:41;;;;;;;3.78;3.47;;;;;;;19.95;73.59;96864.97;5008026;28;20187;-62
2021/09/11 04:37:07;;;;;;;4.63;4.22;;;;;;;19.92;74.17;96869.75;5005364;28;20176;-62
2021/09/11 04:39:32;;;;;;;4.82;3.95;;;;;;;19.85;75.83;96871.97;5011802;28;20233;-62
2021/09/11 04:41:58;;;;;;;4.32;3.92;;;;;;;19.70;76.90;96874.78;5000098;28;20563;-62
2021/09/11 04:44:23;;;;;;;5.00;4.32;;;;;;;19.58;77.70;96878.91;5010770;28;20188;-62
2021/09/11 04:46:49;;;;;;;3.95;3.60;;;;;;;19.46;78.76;96881.94;5005832;28;20563;-62
2021/09/11 04:49:14;;;;;;;4.38;4.07;;;;;;;19.47;78.78;96879.00;5013683;28;20198;-62
2021/09/11 04:51:39;;;;;;;4.05;3.75;;;;;;;19.36;79.57;96874.84;4999764;28;20562;-67
2021/09/11 04:54:05;;;;;;;3.90;3.60;;;;;;;19.48;79.47;96877.16;5013167;28;20219;-62
2021/09/11 04:56:30;;;;;;;4.20;3.80;;;;;;;19.68;78.29;96884.13;5009368;28;20274;-62
2021/09/11 04:58:56;;;;;;;4.50;3.88;;;;;;;19.54;78.85;96880.56;5008170;28;20572;-62
2021/09/11 05:01:21;;;;;;;3.70;3.40;;;;;;;19.56;79.01;96883.72;5001260;28;20189;-62
2021/09/11 05:03:46;;;;;;;3.75;3.45;;;;;;;19.36;79.93;96884.66;5008746;28;20644;-62
2021/09/11 05:06:12;;;;;;;3.97;3.58;;;;;;;19.55;79.46;96882.16;5007711;28;20229;-62
2021/09/11 05:08:37;;;;;;;3.67;3.38;;;;;;;19.31;82.22;96893.50;5002121;28;20184;-62
2021/09/11 05:11:03;;;;;;;3.70;3.40;;;;;;;19.20;83.98;96875.25;5011911;28;20564;-61
2021/09/11 05:13:28;;;;;;;3.70;3.25;;;;;;;19.03;87.21;96888.94;5015054;28;20290;-61
2021/09/11 05:15:53;;;;;;;3.80;3.50;;;;;;;18.84;88.79;96890.66;5016369;28;20178;-62
2021/09/11 05:18:19;;;;;;;5.05;3.53;;;;;;;18.83;88.74;96895.22;5002559;28;20231;-61
2021/09/11 05:20:44;;;;;;;4.60;3.35;;;;;;;18.67;91.09;96897.13;5011537;28;20192;-62
2021/09/11 05:23:09;;;;;;;3.95;3.60;;;;;;;18.73;91.21;96903.22;4995724;28;20191;-62
2021/09/11 05:25:35;;;;;;;4.03;3.45;;;;;;;18.67;91.45;96914.94;5003527;28;20191;-61
2021/09/11 05:28:00;;;;;;;3.80;3.50;;;;;;;18.73;90.96;96905.06;5005954;28;20531;-62
2021/09/11 05:30:26;;;;;;;5.50;3.78;;;;;;;18.62;91.69;96897.16;5010004;28;20261;-62
2021/09/11 05:32:51;;;;;;;4.13;3.75;;;;;;;18.62;91.70;96907.00;4999709;28;20511;-61
2021/09/11 05:35:16;;;;;;;3.72;3.38;;;;;;;18.57;92.61;96907.81;5012041;28;20187;-61
2021/09/11 05:37:42;;;;;;;4.22;3.88;;;;;;;18.57;92.09;96907.81;5006947;28;20192;-63
2021/09/11 05:40:09;;;;;;;3.80;3.42;;;;;;;18.54;92.71;96904.91;5006937;28;20247;-61
2021/09/11 05:42:36;;;;;;;4.03;3.63;;;;;;;18.51;93.34;96905.44;5000741;28;20724;-61
2021/09/11 05:45:05;;;;;;;5.03;4.13;;;;;;;18.62;92.27;96907.00;5011957;28;20188;-62
2021/09/11 05:47:31;;;;;;;4.28;3.80;;;;;;;18.60;93.02;96917.91;5003430;28;20191;-62
2021/09/11 05:49:57;;;;;;;4.43;4.00;;;;;;;18.72;92.10;96911.47;5005207;28;20192;-61
2021/09/11 05:52:24;;;;;;;5.10;3.75;;;;;;;18.72;92.10;96911.47;5006715;28;20199;-62
2021/09/11 05:54:49;;;;;;;5.38;4.28;;;;;;;18.75;92.33;96913.56;4998932;28;20198;-62
2021/09/11 05:57:15;;;;;;;6.15;4.50;;;;;;;18.80;92.72;96910.88;5011527;28;20267;-65
2021/09/11 05:59:40;;;;;;;4.57;4.18;;;;;;;18.86;91.79;96915.88;5001829;28;20191;-61
2021/09/11 06:02:06;;;;;;;4.65;4.20;;;;;;;18.88;91.04;96912.97;4999559;28;20271;-61
2021/09/11 06:04:31;;;;;;;4.72;4.15;;;;;;;18.87;91.72;96916.69;4996322;28;20278;-61
2021/09/11 06:06:57;;;;;;;4.75;4.25;;;;;;;18.90;91.91;96913.47;5010323;28;20186;-67
2021/09/11 06:09:22;;;;;;;5.03;4.50;;;;;;;18.92;92.28;96921.97;5000828;28;20194;-61
2021/09/11 06:11:48;;;;;;;4.50;4.10;;;;;;;19.06;90.69;96918.38;5006539;28;20211;-61
2021/09/11 06:14:13;;;;;;;4.72;4.32;;;;;;;19.11;89.68;96918.34;5007337;28;20662;-74
2021/09/11 06:16:39;;;;;;;4.47;4.07;;;;;;;19.05;91.11;96918.69;5000214;28;20184;-61
2021/09/11 06:19:04;;;;;;;4.72;4.10;;;;;;;19.09;90.76;96922.38;5011508;28;20187;-61
2021/09/11 06:21:29;;;;;;;4.78;4.38;;;;;;;18.95;92.34;96916.09;4995788;28;20568;-61
2021/09/11 06:23:55;;;;;;;4.38;3.75;;;;;;;19.03;91.15;96923.47;4999962;28;20184;-61
2021/09/11 06:26:20;;;;;;;4.65;4.20;;;;;;;18.99;91.52;96925.91;5007785;28;20649;-61
2021/09/11 06:28:45;;;;;;;6.07;4.22;;;;;;;19.06;90.63;96921.03;4999135;28;20303;-62
2021/09/11 06:31:11;;;;;;;4.25;3.72;;;;;;;19.09;90.09;96922.38;5010311;28;20207;-62
2021/09/11 06:33:36;;;;;;;4.50;4.10;;;;;;;19.15;90.58;96923.13;4995786;28;20236;-61
2021/09/11 06:36:02;;;;;;;4.65;4.20;;;;;;;19.34;89.56;96924.03;4996346;28;20531;-70
2021/09/11 06:38:27;;;;;;;4.35;3.90;;;;;;;19.45;88.84;96931.66;5007458;28;20232;-61
2021/09/11 06:40:53;;;;;;;4.28;3.88;;;;;;;19.52;88.27;96931.34;4998505;28;20192;-64
2021/09/11 06:43:18;;;;;;;4.32;3.92;;;;;;;19.66;88.14;96936.81;5010898;28;20191;-61
2021/09/11 06:45:44;;;;;;;4.78;4.30;;;;;;;19.61;87.94;96939.53;4995672;28;20180;-61
2021/09/11 06:48:09;;;;;;;4.30;3.90;;;;;;;19.67;87.37;96939.19;4995850;28;20192;-61
2021/09/11 06:50:35;;;;;;;5.18;4.03;;;;;;;19.86;86.47;96937.41;4999678;28;20286;-62
2021/09/11 06:53:00;;;;;;;4.13;3.75;;;;;;;20.00;85.98;96931.41;4998117;28;20195;-62
2021/09/11 06:55:25;;;;;;;3.80;3.35;;;;;;;20.27;83.58;96931.63;5009271;28;20343;-63
2021/09/11 06:57:51;;;;;;;3.83;3.53;;;;;;;20.32;83.37;96939.59;4993326;28;20188;-63
2021/09/11 07:00:17;;;;;;;3.60;3.30;;;;;;;20.31;82.63;96936.13;5010094;28;20187;-63
2021/09/11 07:02:43;;;;;;;3.40;3.10;;;;;;;20.44;82.40;96936.53;5003862;28;20191;-63
2021/09/11 07:05:09;;;;;;;5.05;3.53;;;;;;;20.62;81.51;96931.19;4995485;28;20192;-64
2021/09/11 07:07:34;;;;;;;3.40;3.10;;;;;;;20.80;80.40;96936.81;5003238;28;20183;-63
2021/09/11 07:10:00;;;;;;;3.78;3.38;;;;;;;21.02;79.32;96937.03;5001066;28;20202;-63
2021/09/11 07:12:25;;;;;;;3.50;3.17;;;;;;;21.19;79.19;96947.22;5003062;28;20220;-63
2021/09/11 07:14:51;;;;;;;3.83;3.45;;;;;;;21.31;78.72;96939.56;4994315;28;20192;-63
2021/09/11 07:17:16;;;;;;;3.35;2.95;;;;;;;21.36;78.26;96934.94;5007321;28;20195;-63
2021/09/11 07:19:42;;;;;;;4.45;3.30;;;;;;;21.36;78.25;96948.28;4997987;28;20192;-67
2021/09/11 07:22:07;;;;;;;3.80;3.13;;;;;;;21.49;77.24;96946.75;5008697;28;20197;-64
2021/09/11 07:24:33;;;;;;;2.95;2.75;;;;;;;21.39;76.56;96946.91;5001676;28;20183;-63
2021/09/11 07:26:58;;;;;;;2.65;2.45;;;;;;;21.36;77.27;96953.59;5011499;28;20191;-67
2021/09/11 07:29:24;;;;;;;2.42;2.22;;;;;;;21.17;77.71;96955.53;5013452;28;20194;-63
2021/09/11 07:31:49;;;;;;;2.72;2.53;;;;;;;21.13;77.38;96951.81;4996976;28;20295;-72
2021/09/11 07:34:15;;;;;;;2.42;2.33;;;;;;;21.13;77.77;96949.13;5016153;28;20238;-73
2021/09/11 07:36:40;;;;;;;3.22;2.88;;;;;;;21.32;77.40;96949.94;5005355;28;20209;-64
2021/09/11 07:39:06;;;;;;;3.03;2.78;;;;;;;21.63;75.90;96952.88;5005388;28;20923;-63
2021/09/11 07:41:33;;;;;;;2.80;2.60;;;;;;;21.70;75.59;96944.50;4999335;28;20205;-66
2021/09/11 07:43:59;;;;;;;2.70;2.50;;;;;;;22.00;74.17;96946.69;4996424;28;20203;-64
2021/09/11 07:46:24;;;;;;;3.20;2.97;;;;;;;22.20;73.41;96950.81;4997278;28;20192;-64
2021/09/11 07:48:50;;;;;;;3.10;2.80;;;;;;;22.50;72.58;96954.78;4998776;28;20325;-63
2021/09/11 07:51:15;;;;;;;4.00;2.55;;;;;;;22.38;71.83;96957.94;4998464;28;20210;-64
2021/09/11 07:53:41;;;;;;;6.78;2.75;;;;;;;22.56;71.05;96959.72;5002418;28;20655;-64
2021/09/11 07:56:07;;;;;;;2.90;2.70;;;;;;;22.45;71.25;96961.03;4998462;28;20179;-64
2021/09/11 07:58:32;;;;;;;2.55;2.35;;;;;;;22.45;70.85;96958.34;4999265;28;20318;-64
2021/09/11 08:01:00;;;;;;;2.97;2.75;;;;;;;22.59;70.82;96964.47;5003509;28;20190;-63
2021/09/11 08:03:28;;;;;;;2.85;2.58;;;;;;;22.79;69.94;96961.38;5002109;28;20189;-63
2021/09/11 08:05:55;;;;;;;2.38;2.17;;;;;;;23.13;68.27;96968.91;5003411;28;20195;-63
2021/09/11 08:08:20;;;;;;;2.45;2.25;;;;;;;23.40;67.59;96970.72;5010992;28;20211;-63
2021/09/11 08:10:46;;;;;;;2.50;2.10;;;;;;;23.67;66.17;96964.47;5006342;28;20293;-64
2021/09/11 08:13:15;;;;;;;2.42;2.22;;;;;;;23.96;65.08;96970.13;5004377;28;20266;-63
2021/09/11 08:15:41;;;;;;;2.70;2.50;;;;;;;23.63;66.23;96972.31;5001479;28;20184;-63
2021/09/11 08:18:06;;;;;;;2.65;2.45;;;;;;;23.59;66.38;96967.88;5001697;28;20238;-63
2021/09/11 08:20:34;;;;;;;5.85;2.40;;;;;;;23.61;65.70;96971.84;5005291;28;20191;-63
2021/09/11 08:23:04;;;;;;;2.28;2.15;;;;;;;23.40;66.25;96976.06;5002253;28;20188;-63
2021/09/11 08:25:30;;;;;;;2.55;2.35;;;;;;;23.42;66.40;96979.22;5003494;28;20184;-63
2021/09/11 08:27:55;;;;;;;3.13;2.50;;;;;;;23.34;66.31;96979.16;5007962;28;20188;-68
2021/09/11 08:30:21;;;;;;;3.45;2.70;;;;;;;23.62;65.88;96977.97;5002795;28;20190;-63
2021/09/11 08:32:46;;;;;;;2.75;2.50;;;;;;;23.86;64.55;96981.09;5006086;28;20637;-63
2021/09/11 08:35:13;;;;;;;2.50;2.30;;;;;;;23.94;64.75;96979.56;5004092;28;20274;-64
2021/09/11 08:37:39;;;;;;;2.75;2.47;;;;;;;24.42;63.01;96977.75;5011949;28;20183;-63
2021/09/11 08:40:05;;;;;;;2.58;2.38;;;;;;;24.44;62.12;96985.50;5004707;28;20227;-63
2021/09/11 08:42:31;;;;;;;2.70;2.50;;;;;;;24.60;62.21;96983.97;5009820;28;20205;-63
2021/09/11 08:44:57;;;;;;;2.95;2.67;;;;;;;24.50;61.78;96983.47;4996526;28;20601;-63
2021/09/11 08:47:22;;;;;;;4.90;2.80;;;;;;;24.33;63.35;96982.31;5002406;28;20237;-63
2021/09/11 08:49:47;;;;;;;2.55;2.35;;;;;;;24.53;62.73;96980.16;5003244;28;20269;-63
2021/09/11 08:52:13;;;;;;;2.53;2.33;;;;;;;24.23;63.09;96987.94;4999621;28;20219;-63
2021/09/11 08:54:38;;;;;;;2.58;2.38;;;;;;;24.28;62.85;96985.13;4994502;28;20219;-63
2021/09/11 08:57:25;;;;;;;2.38;2.17;;;;;;;24.31;63.15;96986.38;4996632;28;20333;-63
2021/09/11 08:59:51;;;;;;;3.10;2.85;;;;;;;24.47;62.41;96976.03;5003131;28;20270;-63
2021/09/11 09:02:19;;;;;;;2.53;2.30;;;;;;;24.77;61.45;96978.63;5001171;28;20299;-63
2021/09/11 09:04:48;;;;;;;2.70;2.50;;;;;;;25.03;60.69;96977.91;5008751;28;20184;-63
2021/09/11 09:07:35;;;;;;;2.50;2.35;;;;;;;25.20;59.35;96977.91;4993498;28;20196;-66
2021/09/11 09:10:12;;;;;;;2.20;2.10;;;;;;;25.25;58.85;96980.44;5002481;28;20558;-63
2021/09/11 09:12:39;;;;;;;2.13;1.98;;;;;;;25.13;58.61;96975.69;4996442;28;20219;-68
2021/09/11 09:15:09;;;;;;;2.15;1.95;;;;;;;25.42;57.14;96975.06;5009685;28;20191;-64
2021/09/11 09:17:49;;;;;;;2.53;2.10;;;;;;;25.33;56.62;96973.50;5003287;28;20184;-64
2021/09/11 09:20:29;;;;;;;2.35;2.15;;;;;;;25.38;57.05;96979.50;5000975;28;20188;-63
2021/09/11 09:22:57;;;;;;;2.80;2.50;;;;;;;25.23;58.08;96972.72;5004031;28;20571;-63
2021/09/11 09:25:35;;;;;;;3.65;2.45;;;;;;;25.32;57.42;96975.38;5002249;28;20188;-63
2021/09/11 09:28:06;;;;;;;2.38;2.22;;;;;;;25.61;56.30;96972.09;4997393;28;20200;-67
2021/09/11 09:30:40;;;;;;;2.95;2.60;;;;;;;25.67;56.27;96973.50;5005946;28;20289;-64
2021/09/11 09:33:17;;;;;;;3.25;2.58;;;;;;;25.58;56.45;96970.00;5007520;28;20520;-63
2021/09/11 09:35:42;;;;;;;2.70;2.50;;;;;;;25.44;57.11;96970.19;5005155;28;20175;-64
2021/09/11 09:38:09;;;;;;;3.90;3.00;;;;;;;25.62;56.58;96969.09;5008791;28;20188;-63
2021/09/11 09:40:43;;;;;;;2.42;2.22;;;;;;;25.41;57.45;96964.66;5001952;28;20230;-66
2021/09/11 09:43:10;;;;;;;2.40;2.20;;;;;;;25.22;58.04;96964.97;5004354;28;20183;-63
2021/09/11 09:45:37;;;;;;;2.95;2.70;;;;;;;25.12;57.83;96968.78;5003218;28;20199;-63
2021/09/11 09:48:11;;;;;;;2.60;2.40;;;;;;;24.91;58.45;96962.44;5009054;28;20191;-64
2021/09/11 09:50:41;;;;;;;2.90;2.60;;;;;;;25.24;58.12;96963.53;4999071;28;20195;-63
2021/09/11 09:53:09;;;;;;;4.38;3.20;;;;;;;25.48;57.58;96968.44;4999000;28;20282;-64
2021/09/11 09:55:36;;;;;;;2.83;2.50;;;;;;;25.56;56.70;96970.34;5000819;28;20572;-63
2021/09/11 09:58:02;;;;;;;2.65;2.42;;;;;;;25.72;56.61;96956.41;5010430;28;20198;-64
2021/09/11 10:00:28;;;;;;;4.18;2.53;;;;;;;25.97;56.56;96961.72;4999256;28;20179;-61
2021/09/11 10:02:53;;;;;;;2.53;2.33;;;;;;;25.59;57.31;96964.34;5011113;28;20187;-61
2021/09/11 10:05:23;;;;;;;2.60;2.40;;;;;;;25.61;57.23;96959.44;5015476;28;20624;-67
2021/09/11 10:08:07;;;;;;;3.58;2.30;;;;;;;25.56;57.38;96964.97;5015211;28;20903;-62
2021/09/11 10:10:37;;;;;;;2.78;2.53;;;;;;;24.97;58.71;96961.16;5015439;28;20194;-62
2021/09/11 10:13:08;;;;;;;3.42;3.13;;;;;;;23.85;62.32;96955.41;5008252;28;20180;-62
2021/09/11 10:15:35;;;;;;;2.90;2.70;;;;;;;23.86;63.16;96954.31;5006783;28;20175;-62
2021/09/11 10:18:03;;;;;;;2.72;2.53;;;;;;;23.24;65.37;96958.00;5000693;28;20194;-62
2021/09/11 10:21:07;;;;;;;2.70;2.50;;;;;;;23.63;63.96;96948.22;5011214;28;20191;-62
2021/09/11 10:23:32;;;;;;;3.15;2.80;;;;;;;24.22;63.67;96940.81;4995183;28;20652;-62
2021/09/11 10:25:58;;;;;;;2.97;2.70;;;;;;;23.83;65.17;96949.59;4996335;28;20196;-64
2021/09/11 10:28:26;;;;;;;3.15;2.83;;;;;;;23.70;65.43;96936.28;5010125;28;20592;-64
2021/09/11 10:31:04;;;;;;;2.97;2.78;;;;;;;23.11;67.20;96938.25;4999343;28;20222;-61
2021/09/11 10:33:45;;;;;;;3.40;3.00;;;;;;;22.73;69.22;96935.09;5004480;28;20548;-61
2021/09/11 10:36:17;;;;;;;3.28;2.90;;;;;;;21.92;72.23;96945.44;5007880;28;20203;-61
2021/09/11 10:38:43;;;;;;;3.13;2.92;;;;;;;21.76;73.67;96938.00;4997977;28;20232;-61
2021/09/11 10:41:11;;;;;;;3.30;3.05;;;;;;;21.77;73.48;96931.59;5011287;28;20187;-60
2021/09/11 10:43:37;;;;;;;5.18;3.55;;;;;;;21.91;71.71;96925.16;4997463;28;20196;-61
2021/09/11 10:46:08;;;;;;;4.35;3.10;;;;;;;22.04;70.93;96922.84;5008019;28;20580;-61
2021/09/11 10:48:33;;;;;;;3.80;3.05;;;;;;;21.85;71.40;96921.00;4997475;28;20552;-62
2021/09/11 10:51:24;;;;;;;3.85;3.00;;;;;;;22.23;70.06;96913.66;5004767;28;20306;-61
2021/09/11 10:53:58;;;;;;;3.25;2.95;;;;;;;22.22;70.35;96928.09;4999730;28;20556;-61
2021/09/11 10:56:25;;;;;;;3.13;2.83;;;;;;;22.61;67.78;96930.22;5002622;28;20191;-62
2021/09/11 10:59:15;;;;;;;3.03;2.80;;;;;;;22.81;67.31;96923.66;5002421;28;20198;-63
2021/09/11 11:02:12;;;;;;;4.32;2.65;;;;;;;22.91;67.25;96922.63;5000647;28;20646;-62
2021/09/11 11:04:47;;;;;;;2.88;2.40;;;;;;;23.28;65.15;96918.84;5009307;28;20207;-61
2021/09/11 11:07:14;;;;;;;2.50;2.30;;;;;;;23.63;64.57;96914.53;5009653;28;21018;-60
2021/09/11 11:09:46;;;;;;;2.70;2.50;;;;;;;23.82;62.63;96921.25;5002623;28;20637;-59
2021/09/11 11:12:19;;;;;;;2.53;2.42;;;;;;;24.32;61.85;96916.41;5002973;28;20297;-63
2021/09/11 11:14:47;;;;;;;2.53;2.33;;;;;;;24.39;61.28;96910.59;5001431;28;20195;-60
2021/09/11 11:17:14;;;;;;;2.88;2.67;;;;;;;24.25;61.56;96917.97;4997139;28;20288;-60
2021/09/11 11:19:45;;;;;;;3.08;2.50;;;;;;;24.20;61.70;96921.56;5005572;28;20294;-60
2021/09/11 11:22:13;;;;;;;2.67;2.47;;;;;;;24.25;61.42;96932.16;5003780;28;20633;-59
2021/09/11 11:24:43;;;;;;;2.88;2.67;;;;;;;24.24;61.79;96929.78;5002913;28;20180;-59
2021/09/11 11:27:12;;;;;;;2.70;2.50;;;;;;;23.97;62.88;96923.50;5003167;28;20204;-59
2021/09/11 11:29:38;;;;;;;2.63;2.40;;;;;;;23.68;63.33;96928.59;5001496;28;21022;-60
2021/09/11 11:32:06;;;;;;;3.25;2.95;;;;;;;23.22;69.83;96939.59;5010009;28;20203;-60